ADDS METAR Data INFO
IDs: Format: Raw Decoded Include TAF

Data at: 2300 UTC 16 Jan 2018

KIWI 162253Z AUTO 00000KT 10SM FEW110 M06/M08 A3047 RMK AO2 SLP321 T10611083
KIWI 162153Z AUTO 00000KT 10SM CLR M05/M08 A3047 RMK AO2 SLP320 T10501083
KIWI 162053Z AUTO 22004KT 10SM CLR M03/M08 A3047 RMK AO2 SLP320 T10331083 55003
KIWI 161953Z AUTO 16003KT 10SM CLR M03/M09 A3047 RMK AO2 SLP319 T10331094
KIWI 161931Z AUTO VRB05KT 10SM SCT026 M04/M09 A3047 RMK AO2 T10391094
KIWI 161853Z AUTO VRB05KT 10SM OVC026 M04/M10 A3047 RMK AO2 SLP320 T10391100
KIWI 161827Z AUTO 25003KT 10SM OVC028 M04/M11 A3048 RMK AO2 T10391106
KIWI 161753Z AUTO 00000KT 10SM OVC030 M05/M11 A3048 RMK AO2 SLP323 T10501111 11044 21100 57025
KIWI 161653Z AUTO VRB04KT 10SM CLR M05/M11 A3050 RMK AO2 SLP328 T10501111
KIWI 161553Z AUTO VRB03KT 10SM CLR M06/M12 A3054 RMK AO2 SLP343 T10611117
KIWI 161453Z AUTO 00000KT 10SM CLR M07/M12 A3056 RMK AO2 SLP348 T10721122 53001
KIWI 161353Z AUTO 00000KT 10SM CLR M08/M13 A3055 RMK AO2 SLP346 T10831128
KIWI 161333Z AUTO 00000KT 10SM SCT028 M09/M13 A3056 RMK AO2 T10891128
KIWI 161253Z AUTO 00000KT 10SM OVC029 M09/M13 A3055 RMK AO2 SLP346 T10941128
KIWI 161153Z AUTO VRB03KT 10SM OVC028 M09/M13 A3055 RMK AO2 SLP348 T10941128 11094 21100 53009
KIWI 161053Z AUTO 00000KT 10SM OVC028 M09/M13 A3054 RMK AO2 SLP341 T10941128
KIWI 160953Z AUTO VRB04KT 10SM OVC028 M09/M13 A3053 RMK AO2 SLP339 T10941128
KIWI 160853Z AUTO VRB03KT 10SM OVC029 M09/M12 A3053 RMK AO2 SLP338 T10941122 58002
KIWI 160844Z AUTO VRB03KT 10SM OVC029 M09/M12 A3053 RMK AO2 T10941122
KIWI 160753Z AUTO VRB04KT 10SM OVC030 M09/M12 A3054 RMK AO2 SLP343 T10941122
KIWI 160653Z AUTO 36004KT 10SM OVC030 M09/M12 A3054 RMK AO2 SLP342 T10941122
KIWI 160553Z AUTO VRB05KT 10SM OVC030 M09/M12 A3053 RMK AO2 SLP340 T10941122 11089 21094 58017
KIWI 160453Z AUTO VRB03KT 10SM OVC031 M09/M12 A3055 RMK AO2 SLP347 T10941117 410891167
KIWI 160353Z AUTO VRB04KT 10SM OVC027 M09/M12 A3058 RMK AO2 SLP356 T10891117
KIWI 160253Z AUTO VRB03KT 10SM OVC027 M09/M12 A3058 RMK AO2 SLP358 T10891117 56016
KIWI 160153Z AUTO VRB04KT 10SM OVC026 M09/M12 A3060 RMK AO2 SLP364 T10891117
KIWI 160053Z AUTO VRB04KT 10SM OVC019 M09/M12 A3061 RMK AO2 SLP366 T10891117
KIWI 152353Z AUTO VRB04KT 10SM OVC023 M09/M12 A3063 RMK AO2 SLP374 T10941122 11094 21100 56016
KIWI 152253Z AUTO VRB06KT 10SM OVC020 M09/M13 A3064 RMK AO2 SLP378 T10941128
KIWI 152153Z AUTO VRB04KT 10SM BKN019 OVC025 M09/M13 A3066 RMK AO2 SLP383 T10941133
KIWI 152053Z AUTO VRB05KT 10SM BKN016 OVC024 M09/M14 A3068 RMK AO2 SLP390 T10941144 55008
KIWI 151953Z AUTO VRB05KT 10SM OVC016 M09/M16 A3067 RMK AO2 SLP385 T10941161
KIWI 151853Z AUTO VRB03KT 10SM OVC016 M10/M17 A3068 RMK AO2 SLP389 T11001172
KIWI 151811Z AUTO VRB06KT 10SM FEW019 BKN028 M10/M18 A3070 RMK AO2 T11001183
KIWI 151753Z AUTO 36008KT 300V040 10SM CLR M10/M19 A3070 RMK AO2 SLP398 T11001189 11094 21167 58044
KIWI 151653Z AUTO VRB04KT 10SM CLR M11/M20 A3075 RMK AO2 PRESFR SLP412 T11111200
KIWI 151553Z AUTO 01005KT 10SM CLR M12/M20 A3080 RMK AO2 SLP431 T11171200
KIWI 151453Z AUTO VRB04KT 10SM CLR M14/M20 A3083 RMK AO2 SLP443 T11391200 50003
KIWI 151353Z AUTO VRB04KT 10SM CLR M16/M21 A3086 RMK AO2 SLP451 T11561206
KIWI 151253Z AUTO VRB03KT 10SM CLR M17/M21 A3084 RMK AO2 SLP444 T11671206
KIWI 151153Z AUTO VRB03KT 10SM CLR M17/M21 A3082 RMK AO2 SLP439 T11671206 11144 21167 51005